Flight Track Log - Related Links

Times and Time Zones

All times are in EDT time to prevent confusion due to time zone crossing. See the UPS1057 flight status page for this flight to view local times or setup timezone preferences in your user account.

Time Position Orientation Groundspeed Altitude Reporting Facility
EDT Latitude Longitude Course Direction KTS MPH feet Rate Location/Type
Tue 09:36:35 PM 42.9450 -71.4420 333° Northwest 159 183 1,100  Level FlightAware ADS-B
Tue 09:36:50 PM 42.9580 -71.4500 336° Northwest 172 198 1,900 2,000 Climbing FlightAware ADS-B
Tue 09:37:20 PM 42.9850 -71.4630 341° North 222 255 2,600 1,900 Climbing FlightAware ADS-B
Tue 09:37:50 PM 43.0100 -71.4880 324° Northwest 234 269 3,800 2,533 Climbing FlightAware ADS-B
Tue 09:38:05 PM 43.0220 -71.5060 312° West 252 290 4,500 3,200 Climbing FlightAware ADS-B
Tue 09:38:35 PM 43.0440 -71.5440 308° West 264 304 6,200 3,943 Climbing FlightAware ADS-B
Tue 09:39:15 PM 43.0460 -71.6060 273° West 261 300 9,100 3,741 Climbing FlightAware ADS-B
Tue 09:40:00 PM 43.0110 -71.6710 234° Southwest 306 352 11,500 2,612 Climbing FlightAware ADS-B
Tue 09:40:40 PM 42.9750 -71.7390 234° Southwest 362 417 12,800 2,471 Climbing FlightAware ADS-B
Tue 09:41:25 PM 42.9260 -71.8310 234° Southwest 404 465 15,000 3,106 Climbing FlightAware ADS-B
Tue 09:42:05 PM 42.8900 -71.9180 241° Southwest 415 478 17,200 3,360 Climbing FlightAware ADS-B
Tue 09:42:40 PM 42.8590 -72.0060 244° Southwest 431 496 19,200 3,120 Climbing FlightAware ADS-B
Tue 09:43:20 PM 42.8290 -72.1030 247° West 441 507 21,100 2,700 Climbing FlightAware ADS-B
Tue 09:44:00 PM 42.8080 -72.2130 255° West 453 521 22,800 2,400 Climbing FlightAware ADS-B
Tue 09:44:55 PM 42.7780 -72.3700 255° West 471 542 24,900 2,337 Climbing FlightAware ADS-B
Tue 09:45:35 PM 42.7490 -72.4790 250° West 472 543 26,500 3,300 Climbing FlightAware ADS-B
Tue 09:46:15 PM 42.6980 -72.5730 234° Southwest 449 517 29,300 2,786 Climbing FlightAware ADS-B
Tue 09:47:27 PM 42.6120 -72.7340 234° Southwest 458 527 31,700 2,177 Climbing FlightAware ADS-B
Tue 09:48:08 PM 42.5630 -72.8260 234° Southwest 451 519 33,400 1,366 Climbing FlightAware ADS-B
Tue 09:49:08 PM 42.5080 -72.9310 235° Southwest 453 521 34,000 379 Climbing FlightAware ADS-B
Tue 09:49:43 PM 42.4510 -73.0420 235° Southwest 453 521 34,000  Level FlightAware ADS-B
Tue 09:50:20 PM 42.4130 -73.1150 235° Southwest 453 521 34,000  Level FlightAware ADS-B
Tue 09:51:20 PM 42.3520 -73.2330 235° Southwest 453 521 34,000  Level FlightAware ADS-B
Tue 09:51:52 PM 42.2420 -73.2940 202° Southwest 448 516 34,000  Level FlightAware ADS-B
Tue 09:52:35 PM 42.1740 -73.3680 219° Southwest 450 518 34,000  Level FlightAware ADS-B
Tue 09:53:17 PM 42.1070 -73.4410 219° Southwest 448 516 34,000  Level FlightAware ADS-B
Tue 09:53:42 PM 42.0640 -73.4874 219° Southwest 448 516 34,000  Level FlightAware ADS-B
Tue 09:54:15 PM 42.0115 -73.5442 219° Southwest 448 516 34,000  Level FlightAware ADS-B
Tue 09:54:48 PM 41.9582 -73.6019 219° Southwest 445 512 34,000  Level FlightAware ADS-B
Tue 09:55:23 PM 41.9022 -73.6621 219° Southwest 446 513 34,000  Level FlightAware ADS-B
Tue 09:55:53 PM 41.8536 -73.7142 219° Southwest 446 513 34,000  Level FlightAware ADS-B
Tue 09:56:23 PM 41.8052 -73.7661 219° Southwest 445 512 34,000  Level FlightAware ADS-B
Tue 09:56:54 PM 41.7568 -73.8179 219° Southwest 445 512 34,000  Level FlightAware ADS-B
Tue 09:57:25 PM 41.7067 -73.8713 219° Southwest 445 512 34,000  Level FlightAware ADS-B
Tue 09:57:57 PM 41.6554 -73.9259 218° Southwest 445 512 34,000  Level FlightAware ADS-B
Tue 09:58:27 PM 41.6070 -73.9774 219° Southwest 446 513 34,000  Level FlightAware ADS-B
Tue 09:58:57 PM 41.5574 -74.0299 218° Southwest 446 513 34,000  Level FlightAware ADS-B
Tue 09:59:29 PM 41.5067 -74.0835 218° Southwest 447 514 34,000  Level FlightAware ADS-B
Tue 10:00:00 PM 41.4567 -74.1364 218° Southwest 448 516 34,000  Level FlightAware ADS-B
Tue 10:00:31 PM 41.4055 -74.1904 218° Southwest 449 517 34,000  Level FlightAware ADS-B
Tue 10:01:02 PM 41.3554 -74.2430 218° Southwest 450 518 34,000  Level FlightAware ADS-B
Tue 10:01:33 PM 41.3043 -74.2966 218° Southwest 451 519 34,000  Level FlightAware ADS-B
Tue 10:02:06 PM 41.2505 -74.3531 218° Southwest 453 521 34,000  Level FlightAware ADS-B
Tue 10:02:37 PM 41.1999 -74.4060 218° Southwest 454 522 34,000  Level FlightAware ADS-B
Tue 10:03:08 PM 41.1479 -74.4602 218° Southwest 453 521 34,000  Level FlightAware ADS-B
Tue 10:03:42 PM 41.0923 -74.5179 218° Southwest 454 522 34,000  Level FlightAware ADS-B
Tue 10:04:13 PM 41.0414 -74.5709 218° Southwest 454 522 34,000  Level FlightAware ADS-B
Tue 10:04:44 PM 40.9901 -74.6240 218° Southwest 454 522 34,000  Level FlightAware ADS-B
Tue 10:05:17 PM 40.9359 -74.6800 218° Southwest 454 522 34,000  Level FlightAware ADS-B
Tue 10:05:49 PM 40.8828 -74.7349 218° Southwest 454 522 34,000  Level FlightAware ADS-B
Tue 10:06:19 PM 40.8322 -74.7870 218° Southwest 456 525 34,000  Level FlightAware ADS-B
Tue 10:06:31 PM 40.8143 -74.8082 222° Southwest 455 524 34,000  Level FlightAware ADS-B
Tue 10:06:46 PM 40.7928 -74.8405 229° Southwest 457 526 34,000 128 Level FlightAware ADS-B
Tue 10:07:18 PM 40.7557 -74.9145 237° Southwest 460 529 34,100 952 Climbing FlightAware ADS-B
Tue 10:07:49 PM 40.7226 -74.9877 239° Southwest 458 527 35,000 1,869 Climbing FlightAware ADS-B
Tue 10:08:19 PM 40.6901 -75.0605 240° Southwest 454 522 36,000 1,770 Climbing FlightAware ADS-B
Tue 10:08:50 PM 40.6575 -75.1328 239° Southwest 453 521 36,800 1,475 Climbing FlightAware ADS-B
Tue 10:09:20 PM 40.6255 -75.2035 239° Southwest 451 519 37,500 1,200 Climbing FlightAware ADS-B
Tue 10:09:50 PM 40.5931 -75.2743 239° Southwest 445 512 38,000 500 Climbing FlightAware ADS-B
Tue 10:10:20 PM 40.5611 -75.3441 239° Southwest 440 506 38,000  Level FlightAware ADS-B
Tue 10:10:51 PM 40.5294 -75.4130 239° Southwest 436 502 38,000  Level FlightAware ADS-B
Tue 10:11:23 PM 40.4956 -75.4865 239° Southwest 435 501 38,000  Level FlightAware ADS-B
Tue 10:11:55 PM 40.4626 -75.5578 239° Southwest 436 502 38,000  Level FlightAware ADS-B
Tue 10:12:26 PM 40.4300 -75.6284 239° Southwest 437 503 38,000  Level FlightAware ADS-B
Tue 10:12:57 PM 40.3976 -75.6984 239° Southwest 437 503 38,000  Level FlightAware ADS-B
Tue 10:13:28 PM 40.3655 -75.7676 239° Southwest 438 504 38,000  Level FlightAware ADS-B
Tue 10:13:59 PM 40.3328 -75.8378 239° Southwest 438 504 38,000  Level FlightAware ADS-B
Tue 10:14:29 PM 40.3012 -75.9055 239° Southwest 437 503 38,000  Level FlightAware ADS-B
Tue 10:14:59 PM 40.2688 -75.9747 238° Southwest 438 504 38,000  Level FlightAware ADS-B
Tue 10:15:30 PM 40.2369 -76.0429 239° Southwest 439 505 38,000  Level FlightAware ADS-B
Tue 10:16:00 PM 40.2049 -76.1109 238° Southwest 439 505 38,000  Level FlightAware ADS-B
Tue 10:16:30 PM 40.1729 -76.1790 238° Southwest 440 506 38,000  Level FlightAware ADS-B
Tue 10:17:00 PM 40.1405 -76.2476 238° Southwest 439 505 38,000  Level FlightAware ADS-B
Tue 10:17:31 PM 40.1080 -76.3145 238° Southwest 439 505 38,000  Level FlightAware ADS-B
Tue 10:18:01 PM 40.0765 -76.3853 240° Southwest 439 505 38,000  Level FlightAware ADS-B
Tue 10:18:32 PM 40.0448 -76.4543 239° Southwest 440 506 38,000  Level FlightAware ADS-B
Tue 10:19:03 PM 40.0120 -76.5252 239° Southwest 440 506 38,000  Level FlightAware ADS-B
Tue 10:19:35 PM 39.9785 -76.5974 239° Southwest 438 504 38,000  Level FlightAware ADS-B
Tue 10:20:06 PM 39.9465 -76.6663 239° Southwest 438 504 38,000  Level FlightAware ADS-B
Tue 10:20:36 PM 39.9149 -76.7339 239° Southwest 437 503 38,000  Level FlightAware ADS-B
Tue 10:21:07 PM 39.8825 -76.8034 239° Southwest 438 504 38,000  Level FlightAware ADS-B
Tue 10:21:38 PM 39.8497 -76.8734 239° Southwest 439 505 38,000  Level FlightAware ADS-B
Tue 10:22:09 PM 39.8170 -76.9429 239° Southwest 439 505 38,000  Level FlightAware ADS-B
Tue 10:22:40 PM 39.7842 -77.0126 239° Southwest 439 505 38,000  Level FlightAware ADS-B
Tue 10:23:10 PM 39.7522 -77.0806 239° Southwest 439 505 38,000  Level FlightAware ADS-B
Tue 10:23:41 PM 39.7194 -77.1500 238° Southwest 439 505 38,000  Level FlightAware ADS-B
Tue 10:24:11 PM 39.6877 -77.2170 238° Southwest 439 505 38,000  Level FlightAware ADS-B
Tue 10:24:42 PM 39.6541 -77.2880 238° Southwest 438 504 38,000  Level FlightAware ADS-B
Tue 10:25:14 PM 39.6206 -77.3584 238° Southwest 436 502 38,000  Level FlightAware ADS-B
Tue 10:25:44 PM 39.5885 -77.4256 238° Southwest 435 501 38,000  Level FlightAware ADS-B
Tue 10:26:15 PM 39.5562 -77.4932 238° Southwest 435 501 38,000  Level FlightAware ADS-B
Tue 10:26:45 PM 39.5243 -77.5599 238° Southwest 432 497 38,000  Level FlightAware ADS-B
Tue 10:27:16 PM 39.4924 -77.6264 238° Southwest 433 498 38,000  Level FlightAware ADS-B
Tue 10:27:47 PM 39.4597 -77.6944 238° Southwest 433 498 38,000  Level FlightAware ADS-B
Tue 10:28:17 PM 39.4274 -77.7616 238° Southwest 432 497 38,000  Level FlightAware ADS-B
Tue 10:28:47 PM 39.3958 -77.8277 238° Southwest 433 498 38,000  Level FlightAware ADS-B
Tue 10:29:06 PM 39.3777 -77.8689 240° Southwest 433 498 38,000  Level FlightAware ADS-B
Tue 10:29:41 PM 39.3456 -77.9487 243° Southwest 432 497 38,000  Level FlightAware ADS-B
Tue 10:30:11 PM 39.3183 -78.0176 243° Southwest 431 496 38,000  Level FlightAware ADS-B
Tue 10:30:41 PM 39.2908 -78.0870 243° Southwest 430 495 38,000  Level FlightAware ADS-B
Tue 10:31:26 PM 39.2504 -78.1883 243° Southwest 430 495 38,000  Level FlightAware ADS-B
Tue 10:32:18 PM 39.2030 -78.3060 243° Southwest 430 495 38,000  Level FlightAware ADS-B
Tue 10:32:54 PM 39.1700 -78.3880 243° Southwest 431 496 38,000  Level FlightAware ADS-B
Tue 10:33:36 PM 39.1320 -78.4840 243° Southwest 431 496 38,000  Level FlightAware ADS-B
Tue 10:34:20 PM 39.0910 -78.5840 242° Southwest 430 495 38,000  Level FlightAware ADS-B
Tue 10:34:54 PM 39.0600 -78.6620 243° Southwest 431 496 38,000  Level FlightAware ADS-B
Tue 10:35:30 PM 39.0260 -78.7450 242° Southwest 432 497 38,000  Level FlightAware ADS-B
Tue 10:36:18 PM 38.9850 -78.8460 242° Southwest 431 496 38,000  Level FlightAware ADS-B
Tue 10:36:58 PM 38.9470 -78.9380 242° Southwest 430 495 38,000  Level FlightAware ADS-B
Tue 10:37:42 PM 38.9040 -79.0420 242° Southwest 431 496 38,000  Level FlightAware ADS-B
Tue 10:38:22 PM 38.8670 -79.1330 242° Southwest 431 496 38,000  Level FlightAware ADS-B
Tue 10:39:06 PM 38.8340 -79.2350 247° West 439 505 38,000  Level FlightAware ADS-B
Tue 10:39:40 PM 38.8180 -79.3240 257° West 439 505 38,000  Level FlightAware ADS-B
Tue 10:40:24 PM 38.7980 -79.4340 257° West 440 506 38,000  Level FlightAware ADS-B
Tue 10:41:00 PM 38.7820 -79.5240 257° West 441 507 38,000  Level FlightAware ADS-B
Tue 10:41:47 PM 38.7600 -79.6420 257° West 440 506 38,000  Level FlightAware ADS-B
Tue 10:42:28 PM 38.7410 -79.7450 257° West 438 504 38,000  Level FlightAware ADS-B
Tue 10:43:26 PM 38.7140 -79.8910 257° West 439 505 38,000  Level FlightAware ADS-B
Tue 10:44:05 PM 38.6960 -79.9910 257° West 439 505 38,000  Level FlightAware ADS-B
Tue 10:44:41 PM 38.6780 -80.0840 256° West 441 507 38,000  Level FlightAware ADS-B
Tue 10:45:21 PM 38.6590 -80.1860 257° West 440 506 38,000  Level FlightAware ADS-B
Tue 10:46:01 PM 38.6400 -80.2860 256° West 440 506 38,000  Level FlightAware ADS-B
Tue 10:46:39 PM 38.6220 -80.3820 257° West 440 506 38,000  Level FlightAware ADS-B
Tue 10:47:21 PM 38.6020 -80.4860 256° West 440 506 38,000  Level FlightAware ADS-B
Tue 10:48:06 PM 38.5810 -80.5970 256° West 439 505 38,000  Level FlightAware ADS-B
Tue 10:48:48 PM 38.5600 -80.7070 256° West 440 506 38,000  Level FlightAware ADS-B
Tue 10:49:28 PM 38.5400 -80.8090 256° West 445 512 38,000  Level FlightAware ADS-B
Tue 10:50:10 PM 38.5200 -80.9140 256° West 447 514 38,000  Level FlightAware ADS-B
Tue 10:50:54 PM 38.4980 -81.0290 256° West 446 513 38,000  Level FlightAware ADS-B
Tue 10:51:30 PM 38.4800 -81.1190 256° West 446 513 38,000  Level FlightAware ADS-B
Tue 10:52:10 PM 38.4590 -81.2230 256° West 447 514 38,000  Level FlightAware ADS-B
Tue 10:52:50 PM 38.4390 -81.3240 256° West 447 514 38,000  Level FlightAware ADS-B
Tue 10:53:27 PM 38.4210 -81.4180 256° West 447 514 38,000  Level FlightAware ADS-B
Tue 10:54:12 PM 38.3972 -81.5345 255° West 445 512 38,000  Level FlightAware ADS-B
Tue 10:54:55 PM 38.3750 -81.6420 255° West 444 511 38,000  Level FlightAware ADS-B
Tue 10:55:20 PM 38.3628 -81.7053 256° West 445 512 38,000  Level FlightAware ADS-B
Tue 10:56:22 PM 38.3260 -81.8540 253° West 440 506 38,000  Level FlightAware ADS-B
Tue 10:56:47 PM 38.3077 -81.9212 251° West 444 511 38,000  Level FlightAware ADS-B
Tue 10:57:18 PM 38.2864 -81.9964 250° West 439 505 38,000  Level FlightAware ADS-B
Tue 10:57:49 PM 38.2656 -82.0701 250° West 436 502 38,000  Level FlightAware ADS-B
Tue 10:58:25 PM 38.2420 -82.1530 250° West 434 499 38,000  Level FlightAware ADS-B
Tue 10:58:50 PM 38.2242 -82.2161 250° West 433 498 38,000 -655 Level FlightAware ADS-B
Tue 10:59:20 PM 38.2042 -82.2888 251° West 436 502 37,400 -1,279 Descending FlightAware ADS-B
Tue 10:59:51 PM 38.1826 -82.3625 250° West 440 506 36,700 -1,355 Descending FlightAware ADS-B
Tue 11:00:22 PM 38.1611 -82.4381 250° West 442 509 36,000 -656 Descending FlightAware ADS-B
Tue 11:00:55 PM 38.1377 -82.5200 250° West 442 509 36,000 -94 Level FlightAware ADS-B
Tue 11:01:26 PM 38.1161 -82.5953 250° West 439 505 35,900 -677 Descending FlightAware ADS-B
Tue 11:01:57 PM 38.0948 -82.6690 250° West 443 510 35,300 -1,279 Descending FlightAware ADS-B
Tue 11:02:27 PM 38.0734 -82.7430 250° West 447 514 34,600 -1,161 Descending FlightAware ADS-B
Tue 11:02:59 PM 38.0508 -82.8212 250° West 447 514 34,100 -957 Descending FlightAware ADS-B
Tue 11:03:36 PM 38.0246 -82.9122 250° West 448 516 33,500 -957 Descending FlightAware ADS-B
Tue 11:04:33 PM 37.9834 -83.0530 250° West 448 516 32,600 -288 Descending FlightAware ADS-B
Tue 11:05:20 PM 37.9580 -83.1360 249° West 448 516 33,000 -293 Climbing FlightAware ADS-B
Tue 11:05:55 PM 37.9270 -83.2470 251° West 434 499 32,200 -658 Descending FlightAware ADS-B
Tue 11:06:33 PM 37.9030 -83.3230 248° West 434 499 32,200  Level FlightAware ADS-B
Tue 11:07:21 PM 37.8740 -83.4200 249° West 434 499 32,200  Level FlightAware ADS-B
Tue 11:07:56 PM 37.8520 -83.4910 249° West 434 499 32,200  Level FlightAware ADS-B
Tue 11:08:43 PM 37.8240 -83.5860 250° West 434 499 32,200  Level FlightAware ADS-B
Tue 11:09:19 PM 37.8020 -83.6580 249° West 434 499 32,200 -4,821 Level FlightAware ADS-B
Tue 11:09:39 PM 37.7695 -83.7747 251° West 411 473 27,700 -6,113 Descending FlightAware ADS-B
Tue 11:10:12 PM 37.7479 -83.8462 249° West 405 466 26,800 -1,524 Descending FlightAware ADS-B
Tue 11:10:42 PM 37.7280 -83.9126 249° West 400 460 26,100 -1,500 Descending FlightAware ADS-B
Tue 11:11:36 PM 37.6923 -84.0303 249° West 395 455 24,700 -1,565 Descending FlightAware ADS-B
Tue 11:12:14 PM 37.6677 -84.1114 249° West 395 455 23,700 -1,558 Descending FlightAware ADS-B
Tue 11:12:53 PM 37.6423 -84.1949 249° West 393 452 22,700 -1,463 Descending FlightAware ADS-B
Tue 11:13:36 PM 37.6247 -84.2898 257° West 398 458 21,700 -1,355 Descending FlightAware ADS-B
Tue 11:13:55 PM 37.6250 -84.3340 271° West 402 463 21,300 -789 Descending FlightAware ADS-B
Tue 11:14:52 PM 37.6290 -84.4550 272° West 397 457 20,700 -387 Descending FlightAware ADS-B
Tue 11:15:28 PM 37.6310 -84.5260 272° West 397 457 20,700  Level FlightAware ADS-B
Tue 11:16:15 PM 37.6340 -84.6190 272° West 397 457 20,700 -3,835 Level FlightAware ADS-B
Tue 11:17:05 PM 37.6450 -84.7560 276° West 385 443 14,500 -5,267 Descending FlightAware ADS-B
Tue 11:17:45 PM 37.6500 -84.8480 274° West 378 435 12,800 -1,714 Descending FlightAware ADS-B
Tue 11:18:43 PM 37.6550 -84.9620 273° West 378 435 11,700 -1,440 Descending FlightAware ADS-B
Tue 11:19:25 PM 37.7160 -85.0390 315° West 355 409 10,400 -1,171 Descending FlightAware ADS-B
Tue 11:20:05 PM 37.7570 -85.0950 313° West 325 374 10,100 -514 Descending FlightAware ADS-B
Tue 11:20:35 PM 37.7820 -85.1350 308° West 312 359 9,800 -800 Descending FlightAware ADS-B
Tue 11:20:50 PM 37.7850 -85.1610 278° West 273 314 9,500 -1,333 Descending FlightAware ADS-B
Tue 11:21:20 PM 37.7850 -85.2080 270° West 269 310 8,800 -1,440 Descending FlightAware ADS-B
Tue 11:21:40 PM 37.7860 -85.2430 272° West 270 311 8,300 -1,625 Descending FlightAware ADS-B
Tue 11:22:08 PM 37.7870 -85.2890 272° West 270 311 7,500 -1,607 Descending FlightAware ADS-B
Tue 11:22:36 PM 37.7880 -85.3330 272° West 271 312 6,800 -1,500 Descending FlightAware ADS-B
Tue 11:23:04 PM 37.7880 -85.3770 270° West 270 311 6,100 -1,385 Descending FlightAware ADS-B
Tue 11:23:28 PM 37.7880 -85.4090 270° West 272 313 5,600 -1,364 Descending FlightAware ADS-B
Tue 11:23:48 PM 37.7870 -85.4420 268° West 272 313 5,100 -1,320 Descending FlightAware ADS-B
Tue 11:24:18 PM 37.7990 -85.4840 290° West 272 313 4,500 -1,200 Descending FlightAware ADS-B
Tue 11:24:33 PM 37.8140 -85.5010 318° Northwest 267 307 4,200 -933 Descending FlightAware ADS-B
Tue 11:25:03 PM 37.8420 -85.5310 320° Northwest 245 282 3,800 -720 Descending FlightAware ADS-B
Tue 11:25:23 PM 37.8580 -85.5490 318° Northwest 234 269 3,600 -764 Descending FlightAware ADS-B
Tue 11:25:58 PM 37.8870 -85.5810 319° Northwest 230 265 3,100 -646 Descending FlightAware ADS-B
Tue 11:26:28 PM 37.9090 -85.6040 320° Northwest 212 244 2,900 -218 Descending FlightAware ADS-B
Tue 11:26:53 PM 37.9270 -85.6230 320° Northwest 209 241 2,900  Level FlightAware ADS-B
Tue 11:27:23 PM 37.9500 -85.6470 321° Northwest 209 241 2,900  Level FlightAware ADS-B
Tue 11:27:53 PM 37.9790 -85.6610 339° North 215 247 2,900  Level FlightAware ADS-B
Tue 11:28:18 PM 38.0010 -85.6680 346° North 213 245 2,900  Level FlightAware ADS-B
Tue 11:28:38 PM 38.0220 -85.6750 345° North 213 245 2,900 -240 Level FlightAware ADS-B
Tue 11:29:08 PM 38.0490 -85.6840 345° North 209 241 2,700 -655 Descending FlightAware ADS-B
Tue 11:29:33 PM 38.0710 -85.6920 344° North 205 236 2,300 -982 Descending FlightAware ADS-B
Tue 11:30:03 PM 38.0980 -85.7010 345° North 184 212 1,800 -947 Descending FlightAware ADS-B
Tue 11:30:30 PM 38.1180 -85.7080 345° North 151 174 1,400 -840 Descending FlightAware ADS-B
Tue 11:30:53 PM 38.1340 -85.7130 346° North 146 168 1,100 -824 Descending FlightAware ADS-B
Tue 11:31:21 PM 38.1530 -85.7200 344° North 145 167 700 -900 Descending FlightAware ADS-B
Tue 11:31:33 PM 38.1600 -85.7220 347° North 141 162 500 -1,000 Descending FlightAware ADS-B
Tue 11:32:15 PM 38.1810 -85.7290 345° North 49 56 -714 Descending FlightAware ADS-B
Tue 11:33:07 PM 38.1830 -85.7330 302° West 30 35  Level FlightAware ADS-B
Tue 11:34:31 PM 38.1770 -85.7340 187° South 21 24  Level FlightAware ADS-B
Tue 11:35:19 PM 38.1780 -85.7380 288° West 23 26  Level FlightAware ADS-B
Tue 11:35:37 PM 38.1790 -85.7410 293° West 25 29  Level FlightAware ADS-B
Tue 11:36:03 PM 38.1800 -85.7430 302° West 26 30  Level FlightAware ADS-B
Tue 11:36:33 PM 38.1790 -85.7430 180° South 15 17  Level FlightAware ADS-B
Tue 11:37:00 PM 38.1760 -85.7430 180° South 22 25  Level FlightAware ADS-B
Tue 11:37:29 PM 38.1730 -85.7420 165° South 27 31  Level FlightAware ADS-B
Tue 11:37:53 PM 38.1700 -85.7410 165° South 25 29  Level FlightAware ADS-B
Tue 11:38:15 PM 38.1680 -85.7400 159° South 25 29  Level FlightAware ADS-B
Tue 11:38:50 PM 38.1650 -85.7390 165° South 31 36  Level FlightAware ADS-B
Tue 11:39:35 PM 38.1640 -85.7330 102° East 33 38  Level FlightAware ADS-B

Login

Don't have an account? Register now (free) for customized features, flight alerts, and more!